Hiram, Missouri
Current Conditions -  °F | °C
As of 11:41 PM on Saturday 25 Oct 2014 (Local Time) from KPOF Reporting Station
Haze Haze  
Wind Chill: 59°   Ceiling: 700
Heat Index: 59°   Visibility: 1mi
Dew Point: 57°   Wind: 0mph
Humidity: 93%   Direction: NA
Pressure: 29.99"   Gusts: NA
Location:  37.18°N, 90.31°W
Report Text: KPOF 260441Z AUTO 00000KT 1SM BR VV007 15/14 A2999 RMK AO2 T01500139
Loading
Personal Weather Stations






























Interactive Weather Map
Tropical Storm Tracking
New forecast layout! Learn more

10-Day Weather Forecast

Advertisements
Track Severe Weather on mobile